sensor_id;sensor_type;location;lat;lon;timestamp;P1;durP1;ratioP1;P2;durP2;ratioP2
29414;SDS011;20303;48.302;11.914;2022-08-21T00:09:40;2.80;;;1.92;;
29414;SDS011;20303;48.302;11.914;2022-08-21T00:19:41;3.10;;;1.90;;
29414;SDS011;20303;48.302;11.914;2022-08-21T00:29:42;3.05;;;2.00;;
29414;SDS011;20303;48.302;11.914;2022-08-21T00:39:44;5.32;;;2.03;;
29414;SDS011;20303;48.302;11.914;2022-08-21T00:49:45;2.92;;;1.88;;
29414;SDS011;20303;48.302;11.914;2022-08-21T00:59:47;4.40;;;1.90;;
29414;SDS011;20303;48.302;11.914;2022-08-21T01:09:49;2.70;;;1.85;;
29414;SDS011;20303;48.302;11.914;2022-08-21T01:19:51;5.07;;;1.90;;
29414;SDS011;20303;48.302;11.914;2022-08-21T01:30:12;4.18;;;1.80;;
29414;SDS011;20303;48.302;11.914;2022-08-21T01:40:15;3.80;;;1.80;;
29414;SDS011;20303;48.302;11.914;2022-08-21T01:50:18;3.63;;;1.90;;
29414;SDS011;20303;48.302;11.914;2022-08-21T02:00:21;2.85;;;1.95;;
29414;SDS011;20303;48.302;11.914;2022-08-21T02:10:26;4.10;;;1.90;;
29414;SDS011;20303;48.302;11.914;2022-08-21T02:20:31;4.50;;;1.70;;
29414;SDS011;20303;48.302;11.914;2022-08-21T02:30:36;4.03;;;1.70;;
29414;SDS011;20303;48.302;11.914;2022-08-21T02:40:40;4.53;;;1.88;;
29414;SDS011;20303;48.302;11.914;2022-08-21T02:50:44;4.97;;;1.60;;
29414;SDS011;20303;48.302;11.914;2022-08-21T03:00:54;3.30;;;1.75;;
29414;SDS011;20303;48.302;11.914;2022-08-21T03:10:55;3.35;;;1.67;;
29414;SDS011;20303;48.302;11.914;2022-08-21T03:20:56;3.45;;;1.77;;
29414;SDS011;20303;48.302;11.914;2022-08-21T03:30:58;3.08;;;1.55;;
29414;SDS011;20303;48.302;11.914;2022-08-21T03:40:59;3.05;;;1.40;;
29414;SDS011;20303;48.302;11.914;2022-08-21T03:51:00;1.90;;;1.63;;
29414;SDS011;20303;48.302;11.914;2022-08-21T04:01:02;1.73;;;1.60;;
29414;SDS011;20303;48.302;11.914;2022-08-21T04:11:06;1.67;;;1.50;;
29414;SDS011;20303;48.302;11.914;2022-08-21T04:21:07;3.10;;;1.50;;
29414;SDS011;20303;48.302;11.914;2022-08-21T04:31:10;3.78;;;1.60;;
29414;SDS011;20303;48.302;11.914;2022-08-21T04:41:11;4.85;;;1.73;;
29414;SDS011;20303;48.302;11.914;2022-08-21T04:51:13;8.43;;;1.75;;
29414;SDS011;20303;48.302;11.914;2022-08-21T05:01:22;8.35;;;1.70;;
29414;SDS011;20303;48.302;11.914;2022-08-21T05:11:25;8.65;;;1.90;;
29414;SDS011;20303;48.302;11.914;2022-08-21T05:21:27;3.90;;;1.60;;
29414;SDS011;20303;48.302;11.914;2022-08-21T05:31:28;4.60;;;1.70;;
29414;SDS011;20303;48.302;11.914;2022-08-21T05:41:29;5.82;;;1.80;;
29414;SDS011;20303;48.302;11.914;2022-08-21T05:51:30;5.25;;;1.60;;
29414;SDS011;20303;48.302;11.914;2022-08-21T06:01:31;4.00;;;1.90;;
29414;SDS011;20303;48.302;11.914;2022-08-21T06:11:33;4.15;;;1.70;;
29414;SDS011;20303;48.302;11.914;2022-08-21T06:21:34;4.25;;;1.80;;
29414;SDS011;20303;48.302;11.914;2022-08-21T06:31:35;4.00;;;1.60;;
29414;SDS011;20303;48.302;11.914;2022-08-21T06:41:37;5.15;;;1.75;;
29414;SDS011;20303;48.302;11.914;2022-08-21T06:51:38;4.75;;;1.80;;
29414;SDS011;20303;48.302;11.914;2022-08-21T07:01:40;6.82;;;2.30;;
29414;SDS011;20303;48.302;11.914;2022-08-21T07:11:41;7.50;;;2.10;;
29414;SDS011;20303;48.302;11.914;2022-08-21T07:21:42;5.18;;;2.20;;
29414;SDS011;20303;48.302;11.914;2022-08-21T07:31:44;4.80;;;2.30;;
29414;SDS011;20303;48.302;11.914;2022-08-21T07:41:45;4.05;;;2.20;;
29414;SDS011;20303;48.302;11.914;2022-08-21T07:51:46;4.85;;;2.25;;
29414;SDS011;20303;48.302;11.914;2022-08-21T08:01:47;4.93;;;2.10;;
29414;SDS011;20303;48.302;11.914;2022-08-21T08:11:48;8.82;;;2.00;;
29414;SDS011;20303;48.302;11.914;2022-08-21T08:21:49;6.55;;;2.20;;
29414;SDS011;20303;48.302;11.914;2022-08-21T08:31:50;5.03;;;2.20;;
29414;SDS011;20303;48.302;11.914;2022-08-21T08:41:56;3.05;;;2.10;;
29414;SDS011;20303;48.302;11.914;2022-08-21T08:52:02;3.03;;;2.50;;
29414;SDS011;20303;48.302;11.914;2022-08-21T09:02:21;5.22;;;2.10;;
29414;SDS011;20303;48.302;11.914;2022-08-21T09:23:08;9.77;;;2.90;;
29414;SDS011;20303;48.302;11.914;2022-08-21T09:33:31;10.25;;;2.88;;
29414;SDS011;20303;48.302;11.914;2022-08-21T09:43:32;9.13;;;2.97;;
29414;SDS011;20303;48.302;11.914;2022-08-21T09:53:34;8.65;;;2.58;;
29414;SDS011;20303;48.302;11.914;2022-08-21T10:03:37;8.00;;;2.78;;
29414;SDS011;20303;48.302;11.914;2022-08-21T10:24:05;10.50;;;4.20;;
29414;SDS011;20303;48.302;11.914;2022-08-21T11:15:23;4.80;;;3.20;;
29414;SDS011;20303;48.302;11.914;2022-08-21T11:26:02;4.00;;;3.22;;
29414;SDS011;20303;48.302;11.914;2022-08-21T11:36:08;7.10;;;3.72;;
29414;SDS011;20303;48.302;11.914;2022-08-21T11:46:36;5.70;;;4.13;;
29414;SDS011;20303;48.302;11.914;2022-08-21T11:57:14;11.60;;;6.20;;
29414;SDS011;20303;48.302;11.914;2022-08-21T12:17:40;9.75;;;5.97;;
29414;SDS011;20303;48.302;11.914;2022-08-21T12:27:53;9.52;;;5.68;;
29414;SDS011;20303;48.302;11.914;2022-08-21T12:48:22;4.80;;;4.07;;
29414;SDS011;20303;48.302;11.914;2022-08-21T12:58:30;4.30;;;3.90;;
29414;SDS011;20303;48.302;11.914;2022-08-21T13:08:31;4.05;;;3.65;;
29414;SDS011;20303;48.302;11.914;2022-08-21T13:18:40;5.15;;;3.70;;
29414;SDS011;20303;48.302;11.914;2022-08-21T13:29:05;6.83;;;3.70;;
29414;SDS011;20303;48.302;11.914;2022-08-21T13:39:11;5.97;;;3.55;;
29414;SDS011;20303;48.302;11.914;2022-08-21T13:49:15;3.97;;;3.42;;
29414;SDS011;20303;48.302;11.914;2022-08-21T13:59:25;5.80;;;3.40;;
29414;SDS011;20303;48.302;11.914;2022-08-21T14:19:35;3.88;;;3.00;;
29414;SDS011;20303;48.302;11.914;2022-08-21T14:29:40;6.50;;;3.30;;
29414;SDS011;20303;48.302;11.914;2022-08-21T14:39:42;5.53;;;3.65;;
29414;SDS011;20303;48.302;11.914;2022-08-21T14:49:43;14.43;;;3.60;;
29414;SDS011;20303;48.302;11.914;2022-08-21T14:59:44;5.68;;;3.60;;
29414;SDS011;20303;48.302;11.914;2022-08-21T15:09:45;3.92;;;3.20;;
29414;SDS011;20303;48.302;11.914;2022-08-21T15:19:46;4.82;;;3.58;;
29414;SDS011;20303;48.302;11.914;2022-08-21T15:29:47;5.40;;;3.53;;
29414;SDS011;20303;48.302;11.914;2022-08-21T15:39:49;6.05;;;3.47;;
29414;SDS011;20303;48.302;11.914;2022-08-21T15:49:51;5.28;;;3.45;;
29414;SDS011;20303;48.302;11.914;2022-08-21T15:59:54;4.95;;;4.03;;
29414;SDS011;20303;48.302;11.914;2022-08-21T16:09:57;11.10;;;5.30;;
29414;SDS011;20303;48.302;11.914;2022-08-21T16:19:58;7.40;;;4.88;;
29414;SDS011;20303;48.302;11.914;2022-08-21T16:30:02;6.85;;;4.45;;
29414;SDS011;20303;48.302;11.914;2022-08-21T16:40:04;10.70;;;6.00;;
29414;SDS011;20303;48.302;11.914;2022-08-21T16:50:06;9.15;;;6.13;;
29414;SDS011;20303;48.302;11.914;2022-08-21T17:00:08;21.55;;;6.88;;
29414;SDS011;20303;48.302;11.914;2022-08-21T17:10:12;11.10;;;5.38;;
29414;SDS011;20303;48.302;11.914;2022-08-21T17:20:14;11.40;;;4.70;;
29414;SDS011;20303;48.302;11.914;2022-08-21T17:30:16;6.95;;;4.97;;
29414;SDS011;20303;48.302;11.914;2022-08-21T17:40:18;6.90;;;4.53;;
29414;SDS011;20303;48.302;11.914;2022-08-21T17:50:20;5.05;;;4.30;;
29414;SDS011;20303;48.302;11.914;2022-08-21T18:00:22;6.43;;;4.60;;
29414;SDS011;20303;48.302;11.914;2022-08-21T18:10:24;7.82;;;4.68;;
29414;SDS011;20303;48.302;11.914;2022-08-21T18:20:26;7.07;;;5.05;;
29414;SDS011;20303;48.302;11.914;2022-08-21T18:30:27;5.35;;;4.70;;
29414;SDS011;20303;48.302;11.914;2022-08-21T18:40:29;6.35;;;5.35;;
29414;SDS011;20303;48.302;11.914;2022-08-21T18:50:31;9.40;;;7.80;;
29414;SDS011;20303;48.302;11.914;2022-08-21T19:00:34;8.48;;;6.60;;
29414;SDS011;20303;48.302;11.914;2022-08-21T19:10:42;9.00;;;5.95;;
29414;SDS011;20303;48.302;11.914;2022-08-21T19:20:44;6.40;;;5.75;;
29414;SDS011;20303;48.302;11.914;2022-08-21T19:30:50;8.75;;;5.80;;
29414;SDS011;20303;48.302;11.914;2022-08-21T19:41:01;8.63;;;5.97;;
29414;SDS011;20303;48.302;11.914;2022-08-21T19:51:03;6.68;;;5.97;;
29414;SDS011;20303;48.302;11.914;2022-08-21T20:01:05;11.85;;;7.80;;
29414;SDS011;20303;48.302;11.914;2022-08-21T20:11:07;8.88;;;7.25;;
29414;SDS011;20303;48.302;11.914;2022-08-21T20:21:10;8.23;;;6.25;;
29414;SDS011;20303;48.302;11.914;2022-08-21T20:31:12;8.48;;;6.50;;
29414;SDS011;20303;48.302;11.914;2022-08-21T20:41:14;8.18;;;6.47;;
29414;SDS011;20303;48.302;11.914;2022-08-21T20:51:22;7.53;;;6.18;;
29414;SDS011;20303;48.302;11.914;2022-08-21T21:01:42;7.28;;;5.90;;
29414;SDS011;20303;48.302;11.914;2022-08-21T21:11:47;12.38;;;6.60;;
29414;SDS011;20303;48.302;11.914;2022-08-21T21:21:54;10.38;;;6.93;;
29414;SDS011;20303;48.302;11.914;2022-08-21T21:32:02;8.80;;;6.20;;
29414;SDS011;20303;48.302;11.914;2022-08-21T21:42:07;6.40;;;5.80;;
29414;SDS011;20303;48.302;11.914;2022-08-21T22:03:07;7.97;;;6.90;;
29414;SDS011;20303;48.302;11.914;2022-08-21T22:23:16;8.50;;;6.22;;
29414;SDS011;20303;48.302;11.914;2022-08-21T22:33:20;7.60;;;6.30;;
29414;SDS011;20303;48.302;11.914;2022-08-21T22:43:23;8.82;;;6.55;;
29414;SDS011;20303;48.302;11.914;2022-08-21T22:53:25;7.55;;;6.43;;
29414;SDS011;20303;48.302;11.914;2022-08-21T23:13:37;8.35;;;6.57;;
29414;SDS011;20303;48.302;11.914;2022-08-21T23:23:42;6.78;;;5.80;;
29414;SDS011;20303;48.302;11.914;2022-08-21T23:34:03;6.68;;;5.95;;
29414;SDS011;20303;48.302;11.914;2022-08-21T23:44:40;6.78;;;5.80;;
29414;SDS011;20303;48.302;11.914;2022-08-21T23:54:52;6.60;;;5.88;;
